createdAt,value
2022-12-01T00:00:56.575Z,76.74
2022-12-01T00:06:20.474Z,77.05
2022-12-01T00:11:23.585Z,76.76
2022-12-01T00:16:26.808Z,77.74
2022-12-01T00:21:29.929Z,77.28
2022-12-01T00:26:33.044Z,77.31
2022-12-01T00:31:38.836Z,78.29
2022-12-01T00:36:41.990Z,77.42
2022-12-01T00:41:45.109Z,77.96
2022-12-01T00:46:48.210Z,77.77
2022-12-01T00:51:53.875Z,78.53
2022-12-01T00:56:57.054Z,77.81
2022-12-01T01:02:00.520Z,78.74
2022-12-01T01:07:04.879Z,79.08
2022-12-01T01:12:08.045Z,78.68
2022-12-01T01:17:11.176Z,78.53
2022-12-01T01:22:14.370Z,78.77
2022-12-01T01:27:17.614Z,78.58
2022-12-01T01:32:21.176Z,78.15
2022-12-01T01:37:25.557Z,78.55
2022-12-01T01:42:28.716Z,78.62
2022-12-01T01:47:40.275Z,78.46
2022-12-01T01:52:51.991Z,78.62
2022-12-01T01:57:55.259Z,78.85
2022-12-01T02:02:58.714Z,78.56
2022-12-01T02:08:03.157Z,79.33
2022-12-01T02:13:39.103Z,78.99
2022-12-01T02:18:57.281Z,79.21
2022-12-01T02:24:26.440Z,78.19
2022-12-01T02:29:48.375Z,79.34
2022-12-01T02:35:05.930Z,79.62
2022-12-01T02:40:19.786Z,79.14
2022-12-01T02:45:32.681Z,78.38
2022-12-01T02:50:38.504Z,78.98
2022-12-01T02:55:54.328Z,78.87
2022-12-01T03:01:12.233Z,79.05
2022-12-01T03:06:22.959Z,78.74
2022-12-01T03:11:46.187Z,78.97
2022-12-01T03:16:54.704Z,78.96
2022-12-01T03:22:06.044Z,79.49
2022-12-01T03:27:11.529Z,80.00
2022-12-01T03:32:20.891Z,79.59
2022-12-01T03:37:33.112Z,79.90
2022-12-01T03:42:44.443Z,79.59
2022-12-01T03:47:47.814Z,79.17
2022-12-01T03:52:51.144Z,79.23
2022-12-01T03:58:07.949Z,79.11
2022-12-01T04:03:18.648Z,79.13
2022-12-01T04:08:22.472Z,79.62
2022-12-01T04:13:26.173Z,79.48
2022-12-01T04:18:29.346Z,79.24
2022-12-01T04:23:50.836Z,79.90
2022-12-01T04:29:05.748Z,79.67
2022-12-01T04:34:10.790Z,80.14
2022-12-01T04:39:14.072Z,79.73
2022-12-01T04:44:18.087Z,80.04
2022-12-01T04:49:23.824Z,80.31
2022-12-01T04:54:27.323Z,79.99
2022-12-01T04:59:30.434Z,80.11
2022-12-01T05:04:38.866Z,79.59
2022-12-01T05:09:42.069Z,79.69
2022-12-01T05:14:46.308Z,79.33
2022-12-01T05:20:07.957Z,79.12
2022-12-01T05:25:11.048Z,79.24
2022-12-01T05:30:14.299Z,78.61
2022-12-01T05:35:17.618Z,79.28
2022-12-01T05:40:20.754Z,78.74
2022-12-01T05:50:40.933Z,78.47
2022-12-01T05:55:44.077Z,77.77
2022-12-01T06:00:47.653Z,77.77
2022-12-01T06:05:51.324Z,77.50
2022-12-01T06:10:54.573Z,77.99
2022-12-01T06:16:03.289Z,77.10
2022-12-01T06:21:07.504Z,77.47
2022-12-01T06:26:15.078Z,77.57
2022-12-01T06:31:18.302Z,76.80
2022-12-01T06:36:22.469Z,75.98
2022-12-01T06:41:25.576Z,76.23
2022-12-01T06:46:28.801Z,75.18
2022-12-01T06:51:34.450Z,76.01
2022-12-01T06:56:37.664Z,75.64
2022-12-01T07:01:40.934Z,74.42
2022-12-01T07:06:44.252Z,75.18
2022-12-01T07:11:47.463Z,70.09
2022-12-01T07:16:50.677Z,64.99
2022-12-01T07:21:53.839Z,62.21
2022-12-01T07:26:56.936Z,58.54
2022-12-01T07:32:00.031Z,55.94
2022-12-01T07:37:03.176Z,55.13
2022-12-01T07:42:06.425Z,54.75
2022-12-01T07:47:09.527Z,51.81
2022-12-01T07:52:12.713Z,50.04
2022-12-01T07:57:18.459Z,48.96
2022-12-01T08:02:59.084Z,48.72
2022-12-01T08:08:21.089Z,46.94
2022-12-01T08:13:27.341Z,47.09
2022-12-01T08:18:30.514Z,45.03
2022-12-01T08:23:34.724Z,45.48
2022-12-01T08:28:41.218Z,46.03
2022-12-01T08:33:44.627Z,45.00
2022-12-01T08:38:50.739Z,45.20
2022-12-01T08:43:58.825Z,44.18
2022-12-01T08:49:26.127Z,44.43
2022-12-01T08:54:47.604Z,43.50
2022-12-01T08:59:51.585Z,43.04
2022-12-01T09:04:54.852Z,43.56
2022-12-01T09:09:58.219Z,44.11
2022-12-01T09:15:01.435Z,43.88
2022-12-01T09:20:05.558Z,42.50
2022-12-01T09:25:14.954Z,42.27
2022-12-01T09:30:18.421Z,43.08
2022-12-01T09:35:23.511Z,43.01
2022-12-01T09:40:38.790Z,42.84
2022-12-01T09:45:47.814Z,44.25
2022-12-01T09:50:51.089Z,43.01
2022-12-01T09:55:57.827Z,42.79
2022-12-01T10:01:04.641Z,42.50
2022-12-01T10:06:27.207Z,44.09
2022-12-01T10:11:36.494Z,43.97
2022-12-01T10:17:02.467Z,43.30
2022-12-01T10:22:17.444Z,43.98
2022-12-01T10:27:26.683Z,43.57
2022-12-01T10:33:02.260Z,43.11
2022-12-01T10:38:13.070Z,43.85
2022-12-01T10:43:17.085Z,44.85
2022-12-01T10:48:23.011Z,45.76
2022-12-01T10:53:34.541Z,46.63
2022-12-01T10:58:56.300Z,45.44
2022-12-01T11:04:08.761Z,47.58
2022-12-01T11:09:26.194Z,48.92
2022-12-01T11:14:44.208Z,50.24
2022-12-01T11:19:47.849Z,51.88
2022-12-01T11:24:54.025Z,53.02
2022-12-01T11:30:05.089Z,53.07
2022-12-01T11:35:14.363Z,53.85
2022-12-01T11:40:26.480Z,54.42
2022-12-01T11:45:40.536Z,54.73
2022-12-01T11:50:59.848Z,54.56
2022-12-01T11:56:23.861Z,54.94
2022-12-01T12:07:16.107Z,55.65
2022-12-01T12:12:19.223Z,55.51
2022-12-01T12:17:37.930Z,55.76
2022-12-01T12:23:32.119Z,55.75
2022-12-01T12:28:56.938Z,56.38
2022-12-01T12:34:25.259Z,57.40
2022-12-01T12:39:55.148Z,58.12
2022-12-01T12:45:41.648Z,58.68
2022-12-01T12:51:13.309Z,59.68
2022-12-01T12:56:21.090Z,60.18
2022-12-01T13:01:34.603Z,60.20
2022-12-01T13:06:46.284Z,61.13
2022-12-01T13:11:56.155Z,61.37
2022-12-01T13:17:08.348Z,61.78
2022-12-01T13:22:14.549Z,61.51
2022-12-01T13:27:21.552Z,61.88
2022-12-01T13:32:45.033Z,62.99
2022-12-01T13:37:51.357Z,62.99
2022-12-01T13:43:10.266Z,63.48
2022-12-01T13:48:30.297Z,63.39
2022-12-01T13:53:53.111Z,63.52
2022-12-01T13:58:56.435Z,64.51
2022-12-01T14:04:11.796Z,64.72
2022-12-01T14:09:18.023Z,64.84
2022-12-01T14:14:26.511Z,65.33
2022-12-01T14:19:44.676Z,65.57
2022-12-01T14:24:53.338Z,66.44
2022-12-01T14:29:56.467Z,66.80
2022-12-01T14:35:06.387Z,67.27
2022-12-01T14:40:30.673Z,67.17
2022-12-01T14:46:09.417Z,67.75
2022-12-01T14:51:34.293Z,68.22
2022-12-01T14:56:38.343Z,69.23
2022-12-01T15:01:41.826Z,69.60
2022-12-01T15:06:45.659Z,69.91
2022-12-01T15:11:53.306Z,70.74
2022-12-01T15:16:57.006Z,70.62
2022-12-01T15:22:05.607Z,71.78
2022-12-01T15:27:31.493Z,71.95
2022-12-01T15:32:39.900Z,72.16
2022-12-01T15:37:44.671Z,71.96
2022-12-01T15:43:04.748Z,72.08
2022-12-01T15:48:19.244Z,71.83
2022-12-01T15:53:33.137Z,72.94
2022-12-01T15:58:43.966Z,72.32
2022-12-01T16:03:59.326Z,73.31
2022-12-01T16:09:18.896Z,73.32
2022-12-01T16:14:27.311Z,73.06
2022-12-01T16:19:34.265Z,73.69
2022-12-01T16:25:04.612Z,74.47
2022-12-01T16:30:21.748Z,74.26
2022-12-01T16:35:29.534Z,74.90
2022-12-01T16:40:33.268Z,74.85
2022-12-01T16:45:36.436Z,74.24
2022-12-01T16:50:40.837Z,75.04
2022-12-01T16:55:51.478Z,74.88
2022-12-01T17:06:48.812Z,75.28
2022-12-01T17:11:51.967Z,75.37
2022-12-01T17:16:58.660Z,76.25
2022-12-01T17:22:01.890Z,75.82
2022-12-01T17:27:06.373Z,76.28
2022-12-01T17:32:11.251Z,76.22
2022-12-01T17:37:20.501Z,75.43
2022-12-01T17:42:24.166Z,75.40
2022-12-01T17:47:27.652Z,75.63
2022-12-01T17:52:30.920Z,75.42
2022-12-01T17:57:34.328Z,76.09
2022-12-01T18:02:38.901Z,76.44
2022-12-01T18:07:44.841Z,77.41
2022-12-01T18:12:49.127Z,76.37
2022-12-01T18:17:58.846Z,77.15
2022-12-01T18:23:32.465Z,77.66
2022-12-01T18:29:52.195Z,78.98
2022-12-01T18:56:36.535Z,79.44
2022-12-01T19:02:13.825Z,80.19
2022-12-01T19:07:55.613Z,80.07
2022-12-01T19:14:23.665Z,79.92
2022-12-01T19:20:08.505Z,80.02
